Time;durP1;ratioP1;P1;durP2;ratioP2;P2;SDS_P1;SDS_P2;PMS_P1;PMS_P2;Temp;Humidity;BMP_temperature;BMP_pressure;BME280_temperature;BME280_humidity;BME280_pressure;Samples;Min_cycle;Max_cycle;Signal;HPM_P1;HPM_P2
2024/04/12 00:01:45;;;;;;;706.25;176.82;;;15.30;40.20;;;;;;5449950;26;20340;-63
2024/04/12 00:04:15;;;;;;;479.92;98.97;;;15.30;40.20;;;;;;5428443;26;20485;-63
2024/04/12 00:06:49;;;;;;;498.58;92.43;;;15.30;40.20;;;;;;5426381;25;20018;-64
2024/04/12 00:09:21;;;;;;;480.95;88.40;;;15.30;40.30;;;;;;5456191;26;20017;-64
2024/04/12 00:11:53;;;;;;;667.88;155.10;;;15.40;40.30;;;;;;5448922;26;20670;-63
2024/04/12 00:14:22;;;;;;;484.08;95.55;;;15.40;40.40;;;;;;5461641;26;19995;-62
2024/04/12 00:16:53;;;;;;;528.75;103.65;;;15.40;40.40;;;;;;5443187;26;20002;-63
2024/04/12 00:19:23;;;;;;;496.33;98.68;;;15.40;40.40;;;;;;5461630;26;20364;-64
2024/04/12 00:21:56;;;;;;;583.33;135.02;;;15.40;40.40;;;;;;5450395;26;20786;-63
2024/04/12 00:24:29;;;;;;;488.88;97.93;;;15.30;41.00;;;;;;5458266;26;20001;-62
2024/04/12 00:27:01;;;;;;;502.17;95.88;;;15.30;40.60;;;;;;5458415;26;20474;-61
2024/04/12 00:29:30;;;;;;;519.65;109.22;;;15.30;40.60;;;;;;5444642;26;20013;-62
2024/04/12 00:32:13;;;;;;;535.22;102.38;;;15.20;40.70;;;;;;5456816;26;20002;-64
2024/04/12 00:34:47;;;;;;;490.63;97.22;;;15.20;40.70;;;;;;5462825;26;20002;-63
2024/04/12 00:37:20;;;;;;;484.15;95.88;;;15.20;40.60;;;;;;5464742;26;20012;-63
2024/04/12 00:39:54;;;;;;;606.25;139.25;;;15.20;40.70;;;;;;5449163;26;20522;-63
2024/04/12 00:42:31;;;;;;;496.00;98.03;;;15.20;40.70;;;;;;5456590;26;20469;-63
2024/04/12 00:45:02;;;;;;;534.88;100.30;;;15.20;40.70;;;;;;5457573;26;20006;-62
2024/04/12 00:47:35;;;;;;;498.70;90.22;;;15.20;40.80;;;;;;5451172;26;20002;-63
2024/04/12 00:50:05;;;;;;;476.55;88.07;;;15.20;40.70;;;;;;5460298;26;20074;-62
2024/04/12 00:52:38;;;;;;;496.20;92.63;;;15.20;40.80;;;;;;5458602;26;20013;-63
2024/04/12 00:55:09;;;;;;;509.27;91.72;;;15.20;40.80;;;;;;5446326;26;20341;-64
2024/04/12 00:57:41;;;;;;;714.25;175.15;;;15.10;40.80;;;;;;5446689;26;20471;-64
2024/04/12 01:00:11;;;;;;;480.20;95.43;;;15.10;40.80;;;;;;5430812;26;20321;-64
2024/04/12 01:02:47;;;;;;;482.33;93.15;;;15.10;40.80;;;;;;5461252;26;20026;-63
2024/04/12 01:05:17;;;;;;;514.88;102.75;;;15.10;40.90;;;;;;5451252;26;20046;-63
2024/04/12 01:07:55;;;;;;;676.65;165.38;;;15.10;40.90;;;;;;5453692;26;20002;-64
2024/04/12 01:10:30;;;;;;;509.67;98.43;;;15.00;40.90;;;;;;5448326;26;20013;-63
2024/04/12 01:13:20;;;;;;;564.85;117.45;;;15.00;41.40;;;;;;5451268;25;20017;-63
2024/04/12 01:15:48;;;;;;;690.25;175.45;;;15.00;40.90;;;;;;5408282;26;20014;-64
2024/04/12 01:18:19;;;;;;;539.47;96.43;;;15.00;41.00;;;;;;5460122;26;20074;-62
2024/04/12 01:20:47;;;;;;;541.70;99.53;;;15.00;41.00;;;;;;5454930;26;19998;-62
2024/04/12 01:23:20;;;;;;;498.08;87.40;;;14.90;41.00;;;;;;5461521;26;20012;-62
2024/04/12 01:25:51;;;;;;;697.58;170.45;;;14.90;41.00;;;;;;5446183;26;20067;-63
2024/04/12 01:28:22;;;;;;;480.98;82.20;;;14.90;41.10;;;;;;5460628;26;20016;-63
2024/04/12 01:30:56;;;;;;;511.02;87.82;;;14.90;41.00;;;;;;5456381;26;20746;-63
2024/04/12 01:33:27;;;;;;;518.33;90.43;;;14.90;41.00;;;;;;5458320;26;20013;-62
2024/04/12 01:35:55;;;;;;;503.27;86.47;;;14.90;41.10;;;;;;5452752;26;20442;-63
2024/04/12 01:38:31;;;;;;;532.85;95.88;;;14.90;41.10;;;;;;5463340;26;20017;-62
2024/04/12 01:41:05;;;;;;;489.95;83.97;;;14.90;41.20;;;;;;5451444;25;20623;-64
2024/04/12 01:43:38;;;;;;;632.00;122.45;;;14.90;41.10;;;;;;5401267;26;20011;-62
2024/04/12 01:46:08;;;;;;;591.42;110.15;;;14.90;41.10;;;;;;5402460;26;20107;-62
2024/04/12 01:48:39;;;;;;;500.95;87.20;;;14.90;41.10;;;;;;5418340;26;20041;-63
2024/04/12 01:51:13;;;;;;;474.90;80.57;;;14.90;41.20;;;;;;5402226;26;20044;-63
2024/04/12 01:53:45;;;;;;;665.22;154.88;;;14.90;41.20;;;;;;5417541;26;19999;-63
2024/04/12 01:56:16;;;;;;;488.30;85.45;;;14.90;41.20;;;;;;5418957;26;20017;-63
2024/04/12 01:58:47;;;;;;;499.73;92.82;;;14.80;41.30;;;;;;5426020;26;20010;-63
2024/04/12 02:01:16;;;;;;;488.77;88.30;;;14.80;41.30;;;;;;5423182;26;20003;-63
2024/04/12 02:03:47;;;;;;;691.40;187.52;;;14.80;41.50;;;;;;5412338;26;20438;-63
2024/04/12 02:06:16;;;;;;;477.00;100.25;;;14.90;41.40;;;;;;5428613;26;20346;-63
2024/04/12 02:08:48;;;;;;;522.08;107.00;;;14.90;41.40;;;;;;5420728;26;20002;-63
2024/04/12 02:11:23;;;;;;;491.88;100.65;;;14.90;41.40;;;;;;5412983;26;20510;-64
2024/04/12 02:13:57;;;;;;;531.42;114.10;;;14.90;41.40;;;;;;5403059;26;20000;-62
2024/04/12 02:16:27;;;;;;;513.63;93.38;;;14.90;41.40;;;;;;5414482;26;20084;-63
2024/04/12 02:18:58;;;;;;;608.53;125.18;;;14.80;41.30;;;;;;5404512;26;20080;-63
2024/04/12 02:21:31;;;;;;;609.05;125.50;;;14.80;41.30;;;;;;5397141;26;20007;-64
2024/04/12 02:24:02;;;;;;;482.95;106.40;;;14.80;41.40;;;;;;5427220;26;20013;-62
2024/04/12 02:26:35;;;;;;;494.55;100.60;;;14.80;41.50;;;;;;5415321;26;20003;-63
2024/04/12 02:29:07;;;;;;;488.63;104.18;;;14.80;41.50;;;;;;5414118;26;20144;-63
2024/04/12 02:31:35;;;;;;;690.63;169.40;;;14.80;41.50;;;;;;5414041;26;20007;-64
2024/04/12 02:34:09;;;;;;;603.08;133.25;;;14.80;41.50;;;;;;5401434;26;20957;-63
2024/04/12 02:36:37;;;;;;;480.83;84.43;;;14.70;41.40;;;;;;5432973;25;20017;-63
2024/04/12 02:39:08;;;;;;;533.67;105.28;;;14.70;41.50;;;;;;5425095;26;20058;-64
2024/04/12 02:41:39;;;;;;;695.50;171.77;;;14.70;41.50;;;;;;5407933;26;20024;-64
2024/04/12 02:44:10;;;;;;;497.27;101.55;;;14.60;41.50;;;;;;5428173;26;20921;-63
2024/04/12 02:46:38;;;;;;;530.60;108.20;;;14.60;41.50;;;;;;5434139;25;20030;-63
2024/04/12 02:49:10;;;;;;;487.08;100.35;;;14.60;41.50;;;;;;5425487;26;20461;-63
2024/04/12 02:51:47;;;;;;;683.60;172.50;;;14.60;41.70;;;;;;5416081;26;20345;-63
2024/04/12 02:54:19;;;;;;;483.00;97.65;;;14.50;41.50;;;;;;5440282;26;20075;-63
2024/04/12 02:56:56;;;;;;;492.05;100.18;;;14.50;41.50;;;;;;5414856;26;20044;-63
2024/04/12 02:59:27;;;;;;;484.58;97.53;;;14.50;41.60;;;;;;5415614;26;20484;-63
2024/04/12 03:01:55;;;;;;;478.77;101.35;;;14.40;41.50;;;;;;5443020;26;20007;-63
2024/04/12 03:04:27;;;;;;;501.98;111.13;;;14.40;41.60;;;;;;5426127;26;19995;-63
2024/04/12 03:06:56;;;;;;;498.45;113.10;;;14.30;41.70;;;;;;5424677;26;20359;-65
2024/04/12 03:09:27;;;;;;;493.50;108.55;;;14.20;41.90;;;;;;5422709;26;20013;-64
2024/04/12 03:12:01;;;;;;;494.00;98.28;;;14.20;41.70;;;;;;5412077;26;20018;-62
2024/04/12 03:14:31;;;;;;;493.30;83.97;;;14.10;41.80;;;;;;5416578;26;20003;-63
2024/04/12 03:17:04;;;;;;;501.63;108.50;;;14.10;41.70;;;;;;5457002;26;20563;-63
2024/04/12 03:19:35;;;;;;;503.20;113.03;;;14.10;41.90;;;;;;5408285;26;20457;-63
2024/04/12 03:22:03;;;;;;;482.13;98.28;;;14.00;41.80;;;;;;5416415;26;20509;-63
2024/04/12 03:24:34;;;;;;;505.98;92.20;;;14.00;42.20;;;;;;5448879;26;20009;-62
2024/04/12 03:27:06;;;;;;;490.45;95.90;;;14.00;42.00;;;;;;5428007;26;20021;-63
2024/04/12 03:29:38;;;;;;;665.30;144.45;;;14.00;42.10;;;;;;5415289;26;20018;-63
2024/04/12 03:32:07;;;;;;;474.83;86.35;;;14.00;42.20;;;;;;5441895;25;20003;-64
2024/04/12 03:34:38;;;;;;;485.17;93.93;;;14.00;42.00;;;;;;5427335;25;20128;-62
2024/04/12 03:37:23;;;;;;;496.92;93.07;;;14.00;42.20;;;;;;5441972;25;20017;-64
2024/04/12 03:40:00;;;;;;;539.20;114.32;;;14.00;42.10;;;;;;5401348;26;20014;-63
2024/04/12 03:42:31;;;;;;;527.08;97.80;;;14.00;42.10;;;;;;5456927;25;19998;-62
2024/04/12 03:45:12;;;;;;;503.45;94.55;;;14.00;42.20;;;;;;5466675;26;20025;-62
2024/04/12 03:47:44;;;;;;;693.38;174.32;;;14.00;42.20;;;;;;5461973;26;20002;-63
2024/04/12 03:50:16;;;;;;;470.50;81.90;;;14.00;42.10;;;;;;5472972;26;20019;-63
2024/04/12 03:52:44;;;;;;;551.28;102.50;;;14.10;42.20;;;;;;5476604;26;20009;-63
2024/04/12 03:55:16;;;;;;;495.08;84.60;;;14.10;42.20;;;;;;5467220;26;19994;-63
2024/04/12 03:57:47;;;;;;;723.65;182.95;;;14.10;42.20;;;;;;5449030;26;20001;-62
2024/04/12 04:00:20;;;;;;;491.58;96.45;;;14.10;42.20;;;;;;5459719;26;19998;-62
2024/04/12 04:02:51;;;;;;;505.52;99.53;;;14.10;42.40;;;;;;5452309;26;20535;-64
2024/04/12 04:05:25;;;;;;;510.73;93.82;;;14.10;42.40;;;;;;5454597;25;20037;-66
2024/04/12 04:07:54;;;;;;;505.63;98.43;;;14.00;42.50;;;;;;5442724;26;21140;-62
2024/04/12 04:10:25;;;;;;;482.52;89.28;;;14.00;42.50;;;;;;5459908;26;20012;-63
2024/04/12 04:12:57;;;;;;;501.10;97.47;;;13.90;42.50;;;;;;5465195;25;20012;-63
2024/04/12 04:15:27;;;;;;;494.42;93.90;;;13.90;42.50;;;;;;5454621;26;20020;-64
2024/04/12 04:18:10;;;;;;;506.63;93.53;;;13.90;42.60;;;;;;5448307;26;20006;-63
2024/04/12 04:20:42;;;;;;;501.50;90.90;;;13.90;42.60;;;;;;5426931;26;21072;-64
2024/04/12 04:23:11;;;;;;;545.13;103.30;;;13.90;42.60;;;;;;5461274;26;20476;-66
2024/04/12 04:25:44;;;;;;;651.35;157.95;;;13.90;42.60;;;;;;5431989;26;20006;-63
2024/04/12 04:28:15;;;;;;;501.63;105.95;;;13.90;42.60;;;;;;5449079;26;20078;-63
2024/04/12 04:30:46;;;;;;;507.65;111.28;;;13.90;43.00;;;;;;5461011;26;20080;-63
2024/04/12 04:33:14;;;;;;;516.20;98.88;;;14.00;42.60;;;;;;5461745;26;20006;-64
2024/04/12 04:35:45;;;;;;;677.28;155.27;;;14.00;42.60;;;;;;5435731;25;20013;-62
2024/04/12 04:38:16;;;;;;;503.83;88.25;;;14.10;42.60;;;;;;5453949;26;20038;-63
2024/04/12 04:40:52;;;;;;;495.35;86.38;;;14.10;42.60;;;;;;5461412;26;20009;-63
2024/04/12 04:43:23;;;;;;;534.47;93.32;;;13.70;42.40;;;;;;5430829;26;20850;-63
2024/04/12 04:45:54;;;;;;;523.05;106.93;;;14.10;42.60;;;;;;5451758;25;20699;-63
2024/04/12 04:48:22;;;;;;;510.90;117.40;;;14.20;43.30;;;;;;5462492;25;20016;-63
2024/04/12 04:50:53;;;;;;;500.98;87.55;;;14.20;42.60;;;;;;5465746;26;20017;-66
2024/04/12 04:53:23;;;;;;;535.25;109.97;;;14.30;42.60;;;;;;5452351;26;20012;-62
2024/04/12 04:55:54;;;;;;;576.20;127.75;;;14.40;42.60;;;;;;5457515;26;20018;-64
2024/04/12 04:58:28;;;;;;;510.63;88.63;;;14.40;42.60;;;;;;5454817;25;20026;-66
2024/04/12 05:00:58;;;;;;;507.25;87.78;;;14.50;42.60;;;;;;5449791;26;20133;-67
2024/04/12 05:03:27;;;;;;;511.90;105.97;;;14.50;42.60;;;;;;5452947;26;20003;-64
2024/04/12 05:06:05;;;;;;;518.92;118.70;;;14.60;42.60;;;;;;5445169;25;20014;-60
2024/04/12 05:08:35;;;;;;;519.75;97.00;;;14.60;42.60;;;;;;5464868;25;20006;-63
2024/04/12 05:11:06;;;;;;;539.85;96.68;;;14.70;42.80;;;;;;5466558;25;20024;-62
2024/04/12 05:13:37;;;;;;;692.85;153.13;;;14.80;42.70;;;;;;5447439;25;20021;-60
2024/04/12 05:16:10;;;;;;;538.10;98.00;;;14.90;42.70;;;;;;5465548;25;20051;-59
2024/04/12 05:18:38;;;;;;;539.00;100.75;;;15.00;42.70;;;;;;5471003;25;20794;-61
2024/04/12 05:21:12;;;;;;;563.42;105.85;;;15.00;42.60;;;;;;5460069;26;20016;-62
2024/04/12 05:23:40;;;;;;;692.47;204.23;;;15.10;42.70;;;;;;5462982;25;20072;-64
2024/04/12 05:26:12;;;;;;;569.33;137.48;;;15.10;42.60;;;;;;5442309;26;20002;-61
2024/04/12 05:28:43;;;;;;;605.63;124.40;;;15.20;42.60;;;;;;5448091;25;20368;-60
2024/04/12 05:31:14;;;;;;;553.88;124.25;;;15.20;42.70;;;;;;5438559;25;20079;-61
2024/04/12 05:33:43;;;;;;;720.63;176.45;;;15.20;42.60;;;;;;5434879;25;20097;-62
2024/04/12 05:36:16;;;;;;;578.17;127.40;;;15.30;43.30;;;;;;5440351;26;20010;-61
2024/04/12 05:38:47;;;;;;;550.75;106.75;;;15.40;42.80;;;;;;5413895;25;20011;-63
2024/04/12 05:41:15;;;;;;;576.80;145.40;;;15.40;42.70;;;;;;5439711;25;20013;-62
2024/04/12 05:43:50;;;;;;;736.15;204.82;;;15.50;42.70;;;;;;5396296;25;20034;-63
2024/04/12 05:46:22;;;;;;;588.58;145.73;;;15.60;42.60;;;;;;5430271;25;20002;-64
2024/04/12 05:48:53;;;;;;;555.10;107.53;;;15.70;42.50;;;;;;5432250;26;20157;-61
2024/04/12 05:51:21;;;;;;;558.65;107.32;;;15.80;42.50;;;;;;5431643;25;20010;-60
2024/04/12 05:53:55;;;;;;;590.15;131.50;;;15.90;42.50;;;;;;5421310;25;20003;-60
2024/04/12 05:56:25;;;;;;;568.45;111.35;;;16.00;42.40;;;;;;5428641;25;19998;-60
2024/04/12 05:59:01;;;;;;;592.20;123.95;;;16.00;42.40;;;;;;5423355;26;20087;-62
2024/04/12 06:01:33;;;;;;;614.90;124.17;;;16.10;42.40;;;;;;5393475;26;20909;-63
2024/04/12 06:04:05;;;;;;;589.63;119.32;;;16.10;42.40;;;;;;5431082;26;23144;-61
2024/04/12 06:06:33;;;;;;;592.53;120.55;;;16.10;42.50;;;;;;5428202;26;20015;-60
2024/04/12 06:09:05;;;;;;;570.10;111.72;;;16.10;42.50;;;;;;5422360;26;20091;-58
2024/04/12 06:11:41;;;;;;;726.97;183.23;;;16.20;42.50;;;;;;5421257;26;21535;-62
2024/04/12 06:14:16;;;;;;;545.00;107.18;;;16.20;42.50;;;;;;5440323;26;20387;-59
2024/04/12 06:16:46;;;;;;;568.53;116.20;;;16.20;42.50;;;;;;5433097;26;20918;-61
2024/04/12 06:19:17;;;;;;;546.88;106.78;;;16.20;42.60;;;;;;5434233;26;20006;-59
2024/04/12 06:21:46;;;;;;;719.17;180.75;;;16.20;42.70;;;;;;5416962;25;20024;-60
2024/04/12 06:24:26;;;;;;;546.75;107.40;;;16.30;42.80;;;;;;5433629;25;20002;-62
2024/04/12 06:26:55;;;;;;;551.10;115.07;;;16.50;42.80;;;;;;5434575;25;20073;-60
2024/04/12 06:29:29;;;;;;;610.67;135.13;;;16.60;42.80;;;;;;5441969;26;20002;-62
2024/04/12 06:32:06;;;;;;;544.13;117.47;;;16.60;43.40;;;;;;5442324;26;20046;-60
2024/04/12 06:34:41;;;;;;;578.83;136.20;;;16.70;42.70;;;;;;5406786;26;20020;-64
2024/04/12 06:37:10;;;;;;;571.28;117.35;;;16.80;42.80;;;;;;5434370;26;22697;-62
2024/04/12 06:39:43;;;;;;;750.08;195.35;;;16.90;42.70;;;;;;5425247;25;20013;-59
2024/04/12 06:42:11;;;;;;;555.90;123.55;;;17.10;42.70;;;;;;5429966;25;20018;-60
2024/04/12 06:44:54;;;;;;;627.38;139.02;;;17.20;42.60;;;;;;5432688;26;20010;-62
2024/04/12 06:47:25;;;;;;;581.47;124.70;;;17.40;42.70;;;;;;5390312;26;20009;-62
2024/04/12 06:50:08;;;;;;;575.17;119.72;;;17.60;42.60;;;;;;5428969;25;20010;-61
2024/04/12 06:52:36;;;;;;;547.60;116.70;;;17.80;42.50;;;;;;5399804;26;20010;-60
2024/04/12 06:55:08;;;;;;;584.17;141.13;;;18.10;42.40;;;;;;5432516;26;20381;-61
2024/04/12 06:57:44;;;;;;;739.70;207.15;;;18.30;42.20;;;;;;5430084;25;20339;-62
2024/04/12 07:00:20;;;;;;;595.97;152.70;;;18.50;42.30;;;;;;5399057;26;20002;-62
2024/04/12 07:02:49;;;;;;;536.00;119.40;;;18.70;42.10;;;;;;5440851;26;20476;-64
2024/04/12 07:05:21;;;;;;;568.75;130.90;;;18.90;42.00;;;;;;5436541;26;20691;-63
2024/04/12 07:07:51;;;;;;;629.65;150.85;;;19.10;42.00;;;;;;5430066;26;20596;-62
2024/04/12 07:10:27;;;;;;;586.85;128.45;;;19.30;41.80;;;;;;5434830;26;20106;-62
2024/04/12 07:12:55;;;;;;;579.65;128.73;;;19.50;41.70;;;;;;5440462;26;20788;-65
2024/04/12 07:15:29;;;;;;;591.08;128.05;;;19.70;41.70;;;;;;5432766;25;20342;-63
2024/04/12 07:17:58;;;;;;;591.90;127.45;;;19.80;41.60;;;;;;5424524;25;20380;-65
2024/04/12 07:20:36;;;;;;;578.58;129.32;;;20.20;41.80;;;;;;5430094;26;20429;-62
2024/04/12 07:23:10;;;;;;;619.95;147.38;;;21.40;42.70;;;;;;5399926;26;20043;-61
2024/04/12 07:25:45;;;;;;;732.50;215.50;;;23.30;42.20;;;;;;5427260;25;20324;-63
2024/04/12 07:28:13;;;;;;;573.85;146.52;;;25.20;41.20;;;;;;5413162;26;20028;-64
2024/04/12 07:30:47;;;;;;;536.97;148.27;;;27.10;40.30;;;;;;5417498;26;20025;-68
2024/04/12 07:33:15;;;;;;;587.60;186.85;;;29.00;39.20;;;;;;5451772;25;20006;-67
2024/04/12 07:35:48;;;;;;;767.83;294.67;;;30.70;38.10;;;;;;5433966;26;20037;-63
2024/04/12 07:38:17;;;;;;;567.08;216.38;;;32.10;37.20;;;;;;5449051;26;20486;-70
2024/04/12 07:40:54;;;;;;;604.17;252.38;;;33.40;36.20;;;;;;5452504;26;20561;-66
2024/04/12 07:43:23;;;;;;;610.60;262.08;;;34.20;35.10;;;;;;5449712;26;20006;-70
2024/04/12 07:45:57;;;;;;;615.15;294.30;;;34.60;34.20;;;;;;5434264;26;20909;-78
2024/04/12 07:48:27;;;;;;;632.95;297.25;;;35.00;34.20;;;;;;5447518;25;22246;-77
2024/04/12 07:51:04;;;;;;;582.67;294.23;;;36.00;33.90;;;;;;5447627;26;20060;-63
2024/04/12 07:53:34;;;;;;;651.20;330.67;;;36.60;33.30;;;;;;5434535;25;20121;-64
2024/04/12 07:56:14;;;;;;;598.50;315.67;;;37.00;33.10;;;;;;5420679;26;20344;-67
2024/04/12 07:58:50;;;;;;;625.45;342.40;;;37.70;32.60;;;;;;5456041;26;20013;-74
2024/04/12 08:01:26;;;;;;;600.65;339.85;;;38.50;32.00;;;;;;5461265;25;20013;-73
2024/04/12 08:03:56;;;;;;;625.30;359.67;;;38.90;31.50;;;;;;5435481;26;19998;-67
2024/04/12 08:06:55;;;;;;;583.97;339.95;;;38.80;31.50;;;;;;5451437;26;19994;-68
2024/04/12 08:09:34;;;;;;;622.60;357.15;;;38.60;31.60;;;;;;5446415;26;20022;-73
2024/04/12 08:12:14;;;;;;;600.47;354.70;;;38.90;31.60;;;;;;5449420;25;20094;-73
2024/04/12 08:14:52;;;;;;;592.83;372.17;;;39.40;31.10;;;;;;5448218;26;19999;-79
2024/04/12 08:17:39;;;;;;;591.00;376.92;;;39.90;30.30;;;;;;5422252;26;20490;-75
2024/04/12 08:20:13;;;;;;;602.33;396.35;;;40.60;30.00;;;;;;5442510;25;20276;-72
2024/04/12 08:22:46;;;;;;;601.40;396.30;;;41.30;29.60;;;;;;5444381;25;20401;-74
2024/04/12 08:25:17;;;;;;;596.05;409.83;;;41.80;29.20;;;;;;5445992;25;20010;-74
2024/04/12 08:27:54;;;;;;;779.53;501.17;;;42.40;29.00;;;;;;5406204;26;20030;-76
2024/04/12 08:30:28;;;;;;;618.78;436.70;;;42.80;28.50;;;;;;5449233;25;20006;-72
2024/04/12 08:33:02;;;;;;;635.67;463.45;;;43.30;28.40;;;;;;5451670;26;22660;-63
2024/04/12 08:35:40;;;;;;;762.17;527.90;;;43.80;28.10;;;;;;5405293;26;20017;-64
2024/04/12 08:38:12;;;;;;;635.13;480.27;;;44.30;27.90;;;;;;5443753;26;19999;-63
2024/04/12 08:40:44;;;;;;;635.92;487.05;;;44.50;27.50;;;;;;5456179;25;20006;-63
2024/04/12 08:43:17;;;;;;;650.13;499.35;;;44.70;27.30;;;;;;5454537;25;20024;-67
2024/04/12 08:45:58;;;;;;;810.05;572.60;;;45.10;27.20;;;;;;5437823;25;20618;-67
2024/04/12 08:48:32;;;;;;;651.13;508.58;;;45.40;27.10;;;;;;5456054;25;20010;-66
2024/04/12 08:51:08;;;;;;;644.50;509.17;;;45.50;26.80;;;;;;5463434;25;20045;-65
2024/04/12 08:53:44;;;;;;;776.15;571.67;;;45.60;26.70;;;;;;5443588;25;20987;-65
2024/04/12 08:56:17;;;;;;;621.45;515.65;;;45.90;26.50;;;;;;5453211;25;20086;-66
2024/04/12 08:58:52;;;;;;;682.50;532.08;;;46.00;26.70;;;;;;5443762;25;20137;-68
2024/04/12 09:01:25;;;;;;;639.15;517.80;;;45.90;26.00;;;;;;5419485;26;20002;-69
2024/04/12 09:04:13;;;;;;;690.72;539.80;;;45.70;26.00;;;;;;5442097;25;20079;-66
2024/04/12 09:06:48;;;;;;;612.35;500.98;;;45.50;25.90;;;;;;5465640;25;20037;-67
2024/04/12 09:09:19;;;;;;;638.17;502.42;;;44.90;25.90;;;;;;5457692;26;20020;-66
2024/04/12 09:11:54;;;;;;;829.60;566.80;;;44.30;26.20;;;;;;5451958;25;20012;-65
2024/04/12 09:14:23;;;;;;;646.83;486.45;;;43.80;26.40;;;;;;5442172;25;20003;-73
2024/04/12 09:17:00;;;;;;;616.47;478.63;;;43.60;26.50;;;;;;5473733;25;20084;-70
2024/04/12 09:19:38;;;;;;;615.40;482.20;;;43.90;26.40;;;;;;5439698;26;20340;-74
2024/04/12 09:22:12;;;;;;;615.00;481.73;;;44.10;26.20;;;;;;5473058;25;20995;-70
2024/04/12 09:24:41;;;;;;;715.17;518.58;;;44.30;25.90;;;;;;5465480;25;20013;-74
2024/04/12 09:28:03;;;;;;;600.00;477.10;;;44.50;25.80;;;;;;5473444;25;19998;-81
2024/04/12 09:33:50;;;;;;;724.20;512.95;;;44.50;25.30;;;;;;5457044;25;20010;-76
2024/04/12 09:36:38;;;;;;;613.92;471.60;;;43.90;25.50;;;;;;5459363;25;20011;-71
2024/04/12 09:39:14;;;;;;;610.65;465.55;;;43.50;25.70;;;;;;5468633;25;20026;-73
2024/04/12 09:41:53;;;;;;;823.67;556.35;;;43.20;26.00;;;;;;5454218;25;20245;-73
2024/04/12 09:44:27;;;;;;;623.70;473.98;;;43.20;26.10;;;;;;5441329;25;20102;-72
2024/04/12 10:38:23;;;;;;;602.67;466.90;;;44.60;23.30;;;;;;5424234;25;20012;-81
2024/04/12 10:41:15;;;;;;;674.53;486.08;;;44.50;23.40;;;;;;5463542;25;20012;-76
2024/04/12 10:43:51;;;;;;;815.00;537.22;;;44.60;23.20;;;;;;5443733;25;20012;-78
2024/04/12 10:46:23;;;;;;;608.45;467.27;;;44.60;23.00;;;;;;5456027;25;20078;-77
2024/04/12 10:48:52;;;;;;;615.55;465.83;;;44.60;22.90;;;;;;5449254;25;20006;-77
2024/04/12 10:51:24;;;;;;;627.13;464.42;;;44.70;22.90;;;;;;5412739;26;20365;-75
2024/04/12 10:54:00;;;;;;;701.22;493.30;;;44.60;22.60;;;;;;5435743;25;20114;-74
2024/04/12 10:56:31;;;;;;;621.35;452.92;;;44.30;22.40;;;;;;5447720;25;22716;-66
2024/04/12 10:59:06;;;;;;;629.08;446.50;;;43.90;22.40;;;;;;5471704;25;20117;-70
2024/04/12 11:01:47;;;;;;;692.67;455.85;;;43.50;23.00;;;;;;5467709;25;20013;-72
2024/04/12 11:04:28;;;;;;;595.25;401.67;;;43.10;22.50;;;;;;5442277;25;20002;-72
2024/04/12 11:07:07;;;;;;;625.55;384.90;;;42.20;22.50;;;;;;5479397;25;20010;-68
2024/04/12 11:09:43;;;;;;;680.13;397.15;;;41.30;22.80;;;;;;5454915;25;20002;-73
2024/04/12 11:12:17;;;;;;;609.75;339.08;;;40.30;23.10;;;;;;5481069;25;20014;-74
2024/04/12 11:15:12;;;;;;;580.38;324.98;;;39.00;23.40;;;;;;5466181;25;20364;-73
2024/04/12 11:32:21;;;;;;;618.65;243.68;;;30.30;27.30;;;;;;5318296;26;20026;-68
2024/04/12 11:34:57;;;;;;;558.30;222.95;;;29.60;27.80;;;;;;5460506;25;20332;-71
2024/04/12 11:37:40;;;;;;;582.33;212.80;;;29.20;28.10;;;;;;5465829;25;20094;-74
2024/04/12 11:40:24;;;;;;;537.78;190.55;;;28.70;28.30;;;;;;5489678;25;20002;-79
2024/04/12 11:43:10;;;;;;;535.90;190.15;;;28.40;28.50;;;;;;5465784;26;20094;-73
2024/04/12 11:49:07;;;;;;;555.78;189.10;;;27.90;28.80;;;;;;5449024;26;20416;-80
2024/04/12 11:51:48;;;;;;;739.60;252.02;;;27.60;29.00;;;;;;5443655;25;19998;-78
2024/04/12 11:54:22;;;;;;;574.72;188.98;;;27.50;29.20;;;;;;5458289;26;20104;-71
2024/04/12 11:56:51;;;;;;;550.67;189.95;;;27.40;29.20;;;;;;5445101;25;20006;-77
2024/04/12 11:59:38;;;;;;;552.60;184.02;;;27.40;29.40;;;;;;5445037;26;20056;-78
2024/04/12 12:02:18;;;;;;;552.22;181.07;;;27.30;29.50;;;;;;5459471;26;19999;-78
2024/04/12 12:04:52;;;;;;;;;;;27.20;29.50;;;;;;5417964;26;20002;-75
2024/04/12 12:07:20;;;;;;;572.33;180.18;;;27.20;29.50;;;;;;5437330;26;19969;-76
2024/04/12 12:09:56;;;;;;;769.55;272.80;;;27.10;29.60;;;;;;5431332;25;20555;-73
2024/04/12 12:12:26;;;;;;;;;;;27.10;29.70;;;;;;5438679;25;20061;-71
2024/04/12 12:14:58;;;;;;;581.08;185.18;;;27.10;29.70;;;;;;5431982;26;20015;-66
2024/04/12 12:17:28;;;;;;;596.83;183.90;;;27.00;29.70;;;;;;5411697;26;20188;-68
2024/04/12 12:20:04;;;;;;;602.22;193.45;;;27.00;29.80;;;;;;5412538;25;20475;-66
2024/04/12 12:22:33;;;;;;;574.95;179.90;;;26.90;29.90;;;;;;5418575;26;20091;-65
2024/04/12 12:25:07;;;;;;;599.88;188.52;;;26.90;30.00;;;;;;5433345;26;20358;-65
2024/04/12 12:27:38;;;;;;;715.78;224.20;;;27.00;30.00;;;;;;5436239;26;20091;-71
2024/04/12 12:30:14;;;;;;;602.78;185.48;;;26.90;30.00;;;;;;5409075;26;20289;-70
2024/04/12 12:32:44;;;;;;;562.13;176.10;;;26.90;30.10;;;;;;5417230;26;20160;-66
2024/04/12 12:35:22;;;;;;;584.92;179.60;;;26.80;30.10;;;;;;5411569;26;20099;-70
2024/04/12 12:37:51;;;;;;;620.42;210.68;;;26.90;30.30;;;;;;5401470;26;20022;-66
2024/04/12 12:40:23;;;;;;;580.88;181.98;;;26.90;30.40;;;;;;5411392;26;20338;-70
2024/04/12 12:42:51;;;;;;;557.45;174.00;;;26.90;30.40;;;;;;5450859;25;20026;-74
2024/04/12 12:45:24;;;;;;;576.67;178.32;;;26.90;30.40;;;;;;5422298;26;20002;-69
2024/04/12 12:47:53;;;;;;;571.20;192.15;;;26.90;30.40;;;;;;5444184;26;20393;-69
2024/04/12 12:50:29;;;;;;;559.10;174.07;;;27.00;30.50;;;;;;5449596;26;20047;-67
2024/04/12 12:52:59;;;;;;;561.85;173.20;;;27.10;30.60;;;;;;5473504;25;19998;-71
2024/04/12 12:55:33;;;;;;;567.47;206.15;;;27.10;30.50;;;;;;5480882;25;20573;-57
2024/04/12 12:58:11;;;;;;;577.35;190.98;;;27.10;30.50;;;;;;5480124;25;20010;-58
2024/04/12 13:00:44;;;;;;;590.67;205.65;;;27.20;30.70;;;;;;5476526;25;20005;-55
2024/04/12 13:03:17;;;;;;;581.38;191.60;;;27.20;30.60;;;;;;5482596;25;20149;-55
2024/04/12 13:05:52;;;;;;;742.00;304.10;;;27.20;30.70;;;;;;5475003;25;20053;-58
2024/04/12 13:08:20;;;;;;;561.28;184.38;;;27.30;30.80;;;;;;5481410;25;20106;-57
2024/04/12 13:10:54;;;;;;;580.65;220.00;;;27.40;31.20;;;;;;5481330;25;20009;-65
2024/04/12 13:13:23;;;;;;;596.28;199.68;;;27.50;30.80;;;;;;5461424;25;20013;-63
2024/04/12 13:15:58;;;;;;;651.28;233.20;;;27.60;30.80;;;;;;5454790;25;20029;-64
2024/04/12 13:18:27;;;;;;;574.28;206.57;;;27.70;30.80;;;;;;5465560;25;19999;-66
2024/04/12 13:21:04;;;;;;;567.13;204.57;;;27.70;30.80;;;;;;5473997;26;20077;-64
2024/04/12 13:23:35;;;;;;;609.92;205.88;;;27.70;30.70;;;;;;5453732;25;20004;-66
2024/04/12 13:26:08;;;;;;;570.03;205.77;;;27.70;30.70;;;;;;5442989;25;20007;-63
2024/04/12 13:28:36;;;;;;;573.95;197.52;;;27.60;30.80;;;;;;5479398;25;20459;-67
2024/04/12 13:31:10;;;;;;;596.35;202.23;;;27.60;30.80;;;;;;5470045;25;20010;-63
2024/04/12 13:33:39;;;;;;;726.28;260.13;;;27.60;30.80;;;;;;5439852;25;20102;-66
2024/04/12 13:36:12;;;;;;;578.22;193.07;;;27.50;30.80;;;;;;5450312;26;20008;-64
2024/04/12 13:38:41;;;;;;;587.85;198.50;;;27.50;30.90;;;;;;5422256;26;19998;-67
2024/04/12 13:41:13;;;;;;;566.00;188.38;;;27.50;30.90;;;;;;5417906;26;20071;-70
2024/04/12 13:43:46;;;;;;;732.72;265.38;;;27.50;30.90;;;;;;5443759;25;20010;-66
2024/04/12 13:51:53;;;;;;;748.95;273.10;;;27.60;31.10;;;;;;5475286;25;20340;-67
2024/04/12 13:54:25;;;;;;;549.80;184.43;;;27.60;31.10;;;;;;5476961;25;19998;-64
2024/04/12 13:56:56;;;;;;;563.03;196.27;;;27.70;31.20;;;;;;5457470;26;20024;-64
2024/04/12 13:59:30;;;;;;;603.75;202.32;;;27.70;31.10;;;;;;5445025;26;19998;-70